createdAt,value
2022-09-20T00:02:34.676Z,87.43
2022-09-20T00:06:29.027Z,87.26
2022-09-20T00:09:37.571Z,87.99
2022-09-20T00:12:46.039Z,87.60
2022-09-20T00:16:25.662Z,87.69
2022-09-20T00:19:40.048Z,87.89
2022-09-20T00:22:41.686Z,87.41
2022-09-20T00:26:21.034Z,87.58
2022-09-20T00:29:29.669Z,87.80
2022-09-20T00:32:38.070Z,87.93
2022-09-20T00:36:30.016Z,88.25
2022-09-20T00:39:38.592Z,88.42
2022-09-20T00:42:47.030Z,88.14
2022-09-20T00:46:27.887Z,88.24
2022-09-20T00:49:45.424Z,87.83
2022-09-20T00:52:50.443Z,88.48
2022-09-20T00:56:41.042Z,88.27
2022-09-20T00:59:58.038Z,88.84
2022-09-20T01:03:05.843Z,88.49
2022-09-20T01:06:27.008Z,88.90
2022-09-20T01:09:35.595Z,88.65
2022-09-20T01:12:46.029Z,88.42
2022-09-20T01:16:31.120Z,87.95
2022-09-20T01:19:57.370Z,87.53
2022-09-20T01:23:22.050Z,87.12
2022-09-20T01:27:12.044Z,86.57
2022-09-20T01:30:32.035Z,87.34
2022-09-20T01:33:59.042Z,87.35
2022-09-20T01:37:24.594Z,87.78
2022-09-20T01:40:44.104Z,87.76
2022-09-20T01:43:58.675Z,87.07
2022-09-20T01:47:29.116Z,87.12
2022-09-20T01:50:41.003Z,87.31
2022-09-20T01:58:00.023Z,87.48
2022-09-20T02:01:38.531Z,87.89
2022-09-20T02:09:14.131Z,88.28
2022-09-20T02:12:38.467Z,88.67
2022-09-20T02:16:30.100Z,89.21
2022-09-20T02:19:51.679Z,89.39
2022-09-20T02:23:46.046Z,89.54
2022-09-20T02:27:16.110Z,89.65
2022-09-20T02:30:38.758Z,89.56
2022-09-20T02:34:14.116Z,89.98
2022-09-20T02:37:59.096Z,89.38
2022-09-20T02:41:56.540Z,88.58
2022-09-20T02:49:31.410Z,88.98
2022-09-20T02:56:46.051Z,89.18
2022-09-20T03:00:09.061Z,89.15
2022-09-20T03:03:29.591Z,88.86
2022-09-20T03:07:15.023Z,88.76
2022-09-20T03:10:32.078Z,88.86
2022-09-20T03:18:13.055Z,89.03
2022-09-20T03:21:48.111Z,89.55
2022-09-20T03:29:32.032Z,89.65
2022-09-20T03:33:04.059Z,89.91
2022-09-20T03:36:36.637Z,89.83
2022-09-20T03:40:19.210Z,90.52
2022-09-20T03:44:05.177Z,90.87
2022-09-20T03:47:25.995Z,90.68
2022-09-20T03:51:18.066Z,90.75
2022-09-20T03:59:06.198Z,90.82
2022-09-20T04:02:44.571Z,90.66
2022-09-20T04:06:24.075Z,90.90
2022-09-20T04:10:09.143Z,91.37
2022-09-20T04:13:34.505Z,91.67
2022-09-20T04:16:59.136Z,91.42
2022-09-20T04:20:30.068Z,91.77
2022-09-20T04:23:54.637Z,92.21
2022-09-20T04:27:10.070Z,92.31
2022-09-20T04:30:34.105Z,92.14
2022-09-20T04:33:49.172Z,91.65
2022-09-20T04:37:38.225Z,91.26
2022-09-20T04:41:29.112Z,91.00
2022-09-20T04:49:21.099Z,90.87
2022-09-20T04:53:06.082Z,91.03
2022-09-20T04:56:43.110Z,90.79
2022-09-20T05:00:04.866Z,90.39
2022-09-20T05:03:38.184Z,89.95
2022-09-20T05:07:39.094Z,89.98
2022-09-20T05:11:01.643Z,88.87
2022-09-20T05:23:14.106Z,75.16
2022-09-20T05:26:52.665Z,70.25
2022-09-20T05:30:34.082Z,70.11
2022-09-20T05:41:51.175Z,67.10
2022-09-20T05:49:48.133Z,69.52
2022-09-20T05:53:09.297Z,74.21
2022-09-20T06:16:09.258Z,67.24
2022-09-20T06:25:00.248Z,66.00
2022-09-20T06:32:33.656Z,68.68
2022-09-20T06:36:12.134Z,67.02
2022-09-20T06:39:47.142Z,67.51
2022-09-20T06:42:56.986Z,66.24
2022-09-20T07:58:24.948Z,70.37
2022-09-20T08:02:21.201Z,69.47
2022-09-20T08:20:00.534Z,67.73
2022-09-20T08:23:33.332Z,66.69
2022-09-20T08:26:54.471Z,64.66
2022-09-20T08:30:03.180Z,62.62
2022-09-20T08:33:12.135Z,61.99
2022-09-20T08:36:36.113Z,61.75
2022-09-20T08:39:57.973Z,60.90
2022-09-20T08:43:47.272Z,60.94
2022-09-20T08:47:18.087Z,62.84
2022-09-20T08:50:55.659Z,62.91
2022-09-20T08:54:20.907Z,62.43
2022-09-20T08:58:04.940Z,61.94
2022-09-20T09:01:45.872Z,60.22
2022-09-20T09:06:01.301Z,59.44
2022-09-20T09:09:26.616Z,60.46
2022-09-20T09:12:37.570Z,59.89
2022-09-20T09:16:00.398Z,58.56
2022-09-20T09:35:42.539Z,59.70
2022-09-20T09:58:51.630Z,61.39
2022-09-20T10:17:52.275Z,59.30
2022-09-20T10:21:44.386Z,59.61
2022-09-20T10:25:41.342Z,59.77
2022-09-20T10:33:59.163Z,59.17
2022-09-20T10:42:05.491Z,54.89
2022-09-20T10:49:57.808Z,53.14
2022-09-20T11:41:30.086Z,59.01
2022-09-20T12:36:20.204Z,56.39
2022-09-20T13:23:00.280Z,59.48
2022-09-20T13:35:24.322Z,56.59
2022-09-20T13:42:11.960Z,58.11
2022-09-20T13:45:41.401Z,59.54
2022-09-20T13:52:54.247Z,59.13
2022-09-20T13:56:02.243Z,59.52
2022-09-20T14:03:57.771Z,57.63
2022-09-20T14:07:29.176Z,56.34
2022-09-20T14:11:16.091Z,55.07
2022-09-20T14:15:21.486Z,53.69
2022-09-20T14:23:37.500Z,53.76
2022-09-20T15:38:25.227Z,63.36
2022-09-20T15:47:06.780Z,64.63
2022-09-20T15:51:19.299Z,63.92
2022-09-20T16:31:46.014Z,79.45
2022-09-20T16:39:48.279Z,79.99
2022-09-20T16:51:19.824Z,81.92
2022-09-20T16:55:15.623Z,84.85
2022-09-20T16:58:29.003Z,82.82
2022-09-20T17:02:10.580Z,83.79
2022-09-20T17:05:19.119Z,82.43
2022-09-20T17:08:59.220Z,81.71
2022-09-20T17:12:50.340Z,80.77
2022-09-20T17:16:24.329Z,81.17
2022-09-20T17:19:54.514Z,81.61
2022-09-20T17:23:31.596Z,80.28
2022-09-20T17:41:20.617Z,82.41
2022-09-20T17:44:55.559Z,81.97
2022-09-20T17:52:39.671Z,80.24
2022-09-20T18:04:17.830Z,79.80
2022-09-20T18:08:06.542Z,79.84
2022-09-20T18:11:38.527Z,80.96
2022-09-20T18:15:14.299Z,80.52
2022-09-20T18:26:52.658Z,83.46
2022-09-20T18:30:08.489Z,83.82
2022-09-20T18:33:17.226Z,83.55
2022-09-20T18:36:46.708Z,84.08
2022-09-20T18:40:41.494Z,84.21
2022-09-20T18:44:36.278Z,84.98
2022-09-20T18:47:57.775Z,84.92
2022-09-20T18:51:14.351Z,84.91
2022-09-20T18:54:25.954Z,84.11
2022-09-20T18:58:05.554Z,84.88
2022-09-20T19:02:15.367Z,84.07
2022-09-20T19:06:05.186Z,83.82
2022-09-20T19:09:39.295Z,84.26
2022-09-20T19:13:05.395Z,84.45
2022-09-20T19:16:19.601Z,84.34
2022-09-20T19:20:07.427Z,84.68
2022-09-20T19:23:54.630Z,84.44
2022-09-20T19:27:03.555Z,84.36
2022-09-20T19:46:49.063Z,85.11
2022-09-20T19:50:51.662Z,85.07
2022-09-20T19:54:23.928Z,85.72
2022-09-20T20:03:11.381Z,86.22
2022-09-20T20:07:25.348Z,85.03
2022-09-20T20:11:36.793Z,85.35
2022-09-20T20:19:57.444Z,84.90
2022-09-20T20:23:31.589Z,86.36
2022-09-20T20:26:40.476Z,85.46
2022-09-20T20:29:55.339Z,86.20
2022-09-20T20:33:30.016Z,85.39
2022-09-20T20:36:44.343Z,86.31
2022-09-20T20:39:59.351Z,86.07
2022-09-20T20:43:07.551Z,85.77
2022-09-20T20:46:24.529Z,85.63
2022-09-20T20:49:59.529Z,85.33
2022-09-20T20:53:51.395Z,85.20
2022-09-20T20:57:46.316Z,85.14
2022-09-20T21:01:04.436Z,85.19
2022-09-20T21:04:18.784Z,85.19
2022-09-20T21:07:45.482Z,85.50
2022-09-20T21:11:20.386Z,85.97
2022-09-20T21:14:45.607Z,86.19
2022-09-20T21:18:00.321Z,86.19
2022-09-20T21:21:31.440Z,86.44
2022-09-20T21:24:59.439Z,86.21
2022-09-20T21:29:00.648Z,86.59
2022-09-20T21:32:35.394Z,87.07
2022-09-20T21:36:12.620Z,87.19
2022-09-20T21:39:40.351Z,87.48
2022-09-20T21:43:19.511Z,87.50
2022-09-20T21:46:54.511Z,87.77
2022-09-20T21:49:56.427Z,87.45
2022-09-20T21:53:11.380Z,88.10
2022-09-20T21:56:27.344Z,87.50
2022-09-20T21:59:35.327Z,87.40
2022-09-20T22:02:53.319Z,87.28
2022-09-20T22:06:08.746Z,87.91
2022-09-20T22:09:20.869Z,87.46
2022-09-20T22:13:08.688Z,87.70
2022-09-20T22:16:33.405Z,88.59
2022-09-20T22:20:19.594Z,89.47
2022-09-20T22:24:05.197Z,89.98
2022-09-20T22:32:18.760Z,91.19
2022-09-20T22:35:53.446Z,91.14
2022-09-20T22:43:54.633Z,92.00
2022-09-20T22:47:22.823Z,91.94
2022-09-20T22:50:31.375Z,92.81
2022-09-20T22:53:40.536Z,92.62
2022-09-20T22:56:55.470Z,91.59
2022-09-20T23:00:09.722Z,91.12
2022-09-20T23:04:06.787Z,91.56
2022-09-20T23:07:41.524Z,91.93
2022-09-20T23:11:10.186Z,91.35
2022-09-20T23:14:38.350Z,90.19
2022-09-20T23:17:47.083Z,90.62
2022-09-20T23:21:08.342Z,90.80
2022-09-20T23:24:11.855Z,90.57
2022-09-20T23:27:26.347Z,90.67
2022-09-20T23:30:28.049Z,90.41
2022-09-20T23:33:46.589Z,90.60
2022-09-20T23:36:54.876Z,90.76
2022-09-20T23:40:03.380Z,90.24
2022-09-20T23:43:18.592Z,90.45
2022-09-20T23:46:34.664Z,90.57
2022-09-20T23:49:56.878Z,90.51
2022-09-20T23:53:52.400Z,90.10
2022-09-20T23:57:40.711Z,89.94
